sensor_id;sensor_type;location;lat;lon;timestamp;temperature;humidity
41547;DHT22;27271;45.412;10.852;2022-08-21T00:00:19;20.00;99.90
41547;DHT22;27271;45.412;10.852;2022-08-21T00:04:10;19.90;99.90
41547;DHT22;27271;45.412;10.852;2022-08-21T00:08:21;19.90;99.90
41547;DHT22;27271;45.412;10.852;2022-08-21T00:12:44;19.90;99.90
41547;DHT22;27271;45.412;10.852;2022-08-21T00:17:07;19.90;99.90
41547;DHT22;27271;45.412;10.852;2022-08-21T00:26:01;19.90;99.90
41547;DHT22;27271;45.412;10.852;2022-08-21T00:29:35;19.80;99.90
41547;DHT22;27271;45.412;10.852;2022-08-21T00:33:28;19.90;99.90
41547;DHT22;27271;45.412;10.852;2022-08-21T00:36:58;19.90;99.90
41547;DHT22;27271;45.412;10.852;2022-08-21T00:41:10;19.80;99.90
41547;DHT22;27271;45.412;10.852;2022-08-21T00:45:18;19.70;99.90
41547;DHT22;27271;45.412;10.852;2022-08-21T00:48:48;19.60;99.90
41547;DHT22;27271;45.412;10.852;2022-08-21T00:52:52;19.60;99.90
41547;DHT22;27271;45.412;10.852;2022-08-21T00:57:24;19.60;99.90
41547;DHT22;27271;45.412;10.852;2022-08-21T01:01:43;19.70;99.90
41547;DHT22;27271;45.412;10.852;2022-08-21T01:10:59;19.70;99.90
41547;DHT22;27271;45.412;10.852;2022-08-21T01:15:02;19.70;99.90
41547;DHT22;27271;45.412;10.852;2022-08-21T01:19:02;19.60;99.90
41547;DHT22;27271;45.412;10.852;2022-08-21T01:27:12;19.50;99.90
41547;DHT22;27271;45.412;10.852;2022-08-21T01:31:13;19.50;99.90
41547;DHT22;27271;45.412;10.852;2022-08-21T01:35:24;19.50;99.90
41547;DHT22;27271;45.412;10.852;2022-08-21T01:39:46;19.40;99.90
41547;DHT22;27271;45.412;10.852;2022-08-21T01:43:24;19.30;99.90
41547;DHT22;27271;45.412;10.852;2022-08-21T01:47:40;19.40;99.90
41547;DHT22;27271;45.412;10.852;2022-08-21T01:52:10;19.40;99.90
41547;DHT22;27271;45.412;10.852;2022-08-21T01:55:58;19.50;99.90
41547;DHT22;27271;45.412;10.852;2022-08-21T02:04:15;19.50;99.90
41547;DHT22;27271;45.412;10.852;2022-08-21T02:12:12;19.50;99.90
41547;DHT22;27271;45.412;10.852;2022-08-21T02:20:44;19.50;99.90
41547;DHT22;27271;45.412;10.852;2022-08-21T02:29:57;19.50;99.90
41547;DHT22;27271;45.412;10.852;2022-08-21T02:33:27;19.50;99.90
41547;DHT22;27271;45.412;10.852;2022-08-21T02:37:03;19.40;99.90
41547;DHT22;27271;45.412;10.852;2022-08-21T02:40:41;19.30;99.90
41547;DHT22;27271;45.412;10.852;2022-08-21T02:44:19;19.30;99.90
41547;DHT22;27271;45.412;10.852;2022-08-21T02:48:02;19.20;99.90
41547;DHT22;27271;45.412;10.852;2022-08-21T02:51:25;19.20;99.90
41547;DHT22;27271;45.412;10.852;2022-08-21T02:55:02;19.30;99.90
41547;DHT22;27271;45.412;10.852;2022-08-21T02:58:36;19.20;99.90
41547;DHT22;27271;45.412;10.852;2022-08-21T03:02:06;19.20;99.90
41547;DHT22;27271;45.412;10.852;2022-08-21T03:05:34;19.10;99.90
41547;DHT22;27271;45.412;10.852;2022-08-21T03:09:02;19.10;99.90
41547;DHT22;27271;45.412;10.852;2022-08-21T03:12:25;19.10;99.90
41547;DHT22;27271;45.412;10.852;2022-08-21T03:15:50;19.10;99.90
41547;DHT22;27271;45.412;10.852;2022-08-21T03:19:18;19.10;99.90
41547;DHT22;27271;45.412;10.852;2022-08-21T03:24:00;19.10;99.90
41547;DHT22;27271;45.412;10.852;2022-08-21T03:28:04;19.00;99.90
41547;DHT22;27271;45.412;10.852;2022-08-21T03:32:30;18.90;99.90
41547;DHT22;27271;45.412;10.852;2022-08-21T03:36:09;18.80;99.90
41547;DHT22;27271;45.412;10.852;2022-08-21T03:39:55;18.70;99.90
41547;DHT22;27271;45.412;10.852;2022-08-21T03:44:11;18.60;99.90
41547;DHT22;27271;45.412;10.852;2022-08-21T03:52:35;18.50;99.90
41547;DHT22;27271;45.412;10.852;2022-08-21T03:56:46;18.50;99.90
41547;DHT22;27271;45.412;10.852;2022-08-21T04:00:32;18.50;99.90
41547;DHT22;27271;45.412;10.852;2022-08-21T04:04:18;18.40;99.90
41547;DHT22;27271;45.412;10.852;2022-08-21T04:08:04;18.40;99.90
41547;DHT22;27271;45.412;10.852;2022-08-21T04:11:59;18.40;99.90
41547;DHT22;27271;45.412;10.852;2022-08-21T04:15:58;18.40;99.90
41547;DHT22;27271;45.412;10.852;2022-08-21T04:20:04;18.40;99.90
41547;DHT22;27271;45.412;10.852;2022-08-21T04:23:38;18.40;99.90
41547;DHT22;27271;45.412;10.852;2022-08-21T04:27:59;18.40;99.90
41547;DHT22;27271;45.412;10.852;2022-08-21T04:32:11;18.50;99.90
41547;DHT22;27271;45.412;10.852;2022-08-21T04:36:06;18.50;99.90
41547;DHT22;27271;45.412;10.852;2022-08-21T04:39:51;18.50;99.90
41547;DHT22;27271;45.412;10.852;2022-08-21T04:59:30;18.90;99.90
41547;DHT22;27271;45.412;10.852;2022-08-21T05:04:25;18.90;99.90
41547;DHT22;27271;45.412;10.852;2022-08-21T05:08:58;19.10;99.90
41547;DHT22;27271;45.412;10.852;2022-08-21T05:12:50;19.30;99.90
41547;DHT22;27271;45.412;10.852;2022-08-21T05:16:46;19.50;99.90
41547;DHT22;27271;45.412;10.852;2022-08-21T05:20:34;20.00;99.90
41547;DHT22;27271;45.412;10.852;2022-08-21T05:23:58;20.60;99.90
41547;DHT22;27271;45.412;10.852;2022-08-21T05:27:24;21.50;99.90
41547;DHT22;27271;45.412;10.852;2022-08-21T05:30:48;22.50;99.90
41547;DHT22;27271;45.412;10.852;2022-08-21T05:34:20;24.00;99.90
41547;DHT22;27271;45.412;10.852;2022-08-21T05:37:47;26.00;99.90
41547;DHT22;27271;45.412;10.852;2022-08-21T05:41:19;27.80;96.80
41547;DHT22;27271;45.412;10.852;2022-08-21T05:45:18;29.60;91.30
41547;DHT22;27271;45.412;10.852;2022-08-21T05:49:08;31.20;87.40
41547;DHT22;27271;45.412;10.852;2022-08-21T05:52:38;32.60;74.30
41547;DHT22;27271;45.412;10.852;2022-08-21T05:56:21;33.50;69.90
41547;DHT22;27271;45.412;10.852;2022-08-21T06:00:01;34.20;69.20
41547;DHT22;27271;45.412;10.852;2022-08-21T06:03:37;35.50;64.50
41547;DHT22;27271;45.412;10.852;2022-08-21T06:07:29;36.10;60.00
41547;DHT22;27271;45.412;10.852;2022-08-21T06:11:03;36.50;53.40
41547;DHT22;27271;45.412;10.852;2022-08-21T06:14:31;37.00;57.60
41547;DHT22;27271;45.412;10.852;2022-08-21T06:17:56;37.50;55.50
41547;DHT22;27271;45.412;10.852;2022-08-21T06:21:24;37.80;52.80
41547;DHT22;27271;45.412;10.852;2022-08-21T06:25:19;38.20;48.40
41547;DHT22;27271;45.412;10.852;2022-08-21T06:28:43;38.80;52.30
41547;DHT22;27271;45.412;10.852;2022-08-21T06:32:12;39.60;48.90
41547;DHT22;27271;45.412;10.852;2022-08-21T06:35:38;39.80;48.00
41547;DHT22;27271;45.412;10.852;2022-08-21T06:39:10;39.70;51.70
41547;DHT22;27271;45.412;10.852;2022-08-21T06:43:20;40.20;50.40
41547;DHT22;27271;45.412;10.852;2022-08-21T06:47:13;40.60;47.30
41547;DHT22;27271;45.412;10.852;2022-08-21T06:50:37;40.90;45.30
41547;DHT22;27271;45.412;10.852;2022-08-21T06:54:06;40.70;45.00
41547;DHT22;27271;45.412;10.852;2022-08-21T06:57:51;40.80;45.60
41547;DHT22;27271;45.412;10.852;2022-08-21T07:01:35;39.30;47.50
41547;DHT22;27271;45.412;10.852;2022-08-21T07:05:36;37.90;49.00
41547;DHT22;27271;45.412;10.852;2022-08-21T07:09:03;36.60;51.10
41547;DHT22;27271;45.412;10.852;2022-08-21T07:12:26;36.00;52.20
41547;DHT22;27271;45.412;10.852;2022-08-21T07:16:03;36.00;50.40
41547;DHT22;27271;45.412;10.852;2022-08-21T07:19:35;36.00;52.90
41547;DHT22;27271;45.412;10.852;2022-08-21T07:23:10;36.30;52.50
41547;DHT22;27271;45.412;10.852;2022-08-21T07:26:35;36.30;55.30
41547;DHT22;27271;45.412;10.852;2022-08-21T07:30:05;35.90;53.00
41547;DHT22;27271;45.412;10.852;2022-08-21T07:33:35;36.30;53.70
41547;DHT22;27271;45.412;10.852;2022-08-21T07:37:06;37.00;53.90
41547;DHT22;27271;45.412;10.852;2022-08-21T07:40:47;38.00;50.40
41547;DHT22;27271;45.412;10.852;2022-08-21T07:44:25;38.90;46.80
41547;DHT22;27271;45.412;10.852;2022-08-21T07:48:10;38.50;48.10
41547;DHT22;27271;45.412;10.852;2022-08-21T07:51:39;39.40;50.40
41547;DHT22;27271;45.412;10.852;2022-08-21T07:55:25;38.20;51.70
41547;DHT22;27271;45.412;10.852;2022-08-21T07:59:09;38.60;46.10
41547;DHT22;27271;45.412;10.852;2022-08-21T08:03:00;39.60;44.90
41547;DHT22;27271;45.412;10.852;2022-08-21T08:06:24;38.90;45.30
41547;DHT22;27271;45.412;10.852;2022-08-21T08:10:00;39.00;45.70
41547;DHT22;27271;45.412;10.852;2022-08-21T08:13:30;38.50;43.50
41547;DHT22;27271;45.412;10.852;2022-08-21T08:17:05;37.10;45.20
41547;DHT22;27271;45.412;10.852;2022-08-21T08:20:57;37.70;47.30
41547;DHT22;27271;45.412;10.852;2022-08-21T08:24:33;36.90;47.90
41547;DHT22;27271;45.412;10.852;2022-08-21T08:28:43;37.90;48.70
41547;DHT22;27271;45.412;10.852;2022-08-21T08:32:18;38.20;47.00
41547;DHT22;27271;45.412;10.852;2022-08-21T08:35:57;37.10;47.50
41547;DHT22;27271;45.412;10.852;2022-08-21T08:39:30;37.50;46.00
41547;DHT22;27271;45.412;10.852;2022-08-21T08:42:59;38.10;45.60
41547;DHT22;27271;45.412;10.852;2022-08-21T08:46:56;39.00;46.80
41547;DHT22;27271;45.412;10.852;2022-08-21T08:58:34;39.00;44.70
41547;DHT22;27271;45.412;10.852;2022-08-21T09:02:23;39.10;43.80
41547;DHT22;27271;45.412;10.852;2022-08-21T09:10:09;40.10;42.20
41547;DHT22;27271;45.412;10.852;2022-08-21T09:14:16;39.60;43.20
41547;DHT22;27271;45.412;10.852;2022-08-21T09:26:18;39.60;45.70
41547;DHT22;27271;45.412;10.852;2022-08-21T09:29:52;39.00;43.00
41547;DHT22;27271;45.412;10.852;2022-08-21T09:33:30;37.70;47.80
41547;DHT22;27271;45.412;10.852;2022-08-21T09:36:58;37.60;45.60
41547;DHT22;27271;45.412;10.852;2022-08-21T09:40:47;37.30;46.00
41547;DHT22;27271;45.412;10.852;2022-08-21T09:44:29;37.80;43.80
41547;DHT22;27271;45.412;10.852;2022-08-21T09:48:09;38.30;46.60
41547;DHT22;27271;45.412;10.852;2022-08-21T09:59:26;38.80;47.60
41547;DHT22;27271;45.412;10.852;2022-08-21T10:03:19;39.20;42.20
41547;DHT22;27271;45.412;10.852;2022-08-21T10:06:50;38.50;44.00
41547;DHT22;27271;45.412;10.852;2022-08-21T10:10:36;38.30;44.40
41547;DHT22;27271;45.412;10.852;2022-08-21T10:14:49;37.90;47.20
41547;DHT22;27271;45.412;10.852;2022-08-21T10:27:05;37.80;45.10
41547;DHT22;27271;45.412;10.852;2022-08-21T10:35:40;36.90;45.60
41547;DHT22;27271;45.412;10.852;2022-08-21T10:39:35;36.40;46.70
41547;DHT22;27271;45.412;10.852;2022-08-21T10:47:08;37.00;46.50
41547;DHT22;27271;45.412;10.852;2022-08-21T10:50:44;37.40;47.70
41547;DHT22;27271;45.412;10.852;2022-08-21T10:57:58;35.80;50.40
41547;DHT22;27271;45.412;10.852;2022-08-21T11:05:36;35.80;51.10
41547;DHT22;27271;45.412;10.852;2022-08-21T11:14:21;35.20;51.00
41547;DHT22;27271;45.412;10.852;2022-08-21T11:22:23;34.70;50.90
41547;DHT22;27271;45.412;10.852;2022-08-21T11:26:27;34.70;52.60
41547;DHT22;27271;45.412;10.852;2022-08-21T11:30:29;33.90;50.50
41547;DHT22;27271;45.412;10.852;2022-08-21T11:38:30;33.00;52.70
41547;DHT22;27271;45.412;10.852;2022-08-21T11:47:10;33.70;52.70
41547;DHT22;27271;45.412;10.852;2022-08-21T11:50:47;33.20;50.10
41547;DHT22;27271;45.412;10.852;2022-08-21T11:55:02;33.00;52.20
41547;DHT22;27271;45.412;10.852;2022-08-21T11:58:38;33.20;50.20
41547;DHT22;27271;45.412;10.852;2022-08-21T12:02:01;33.30;55.30
41547;DHT22;27271;45.412;10.852;2022-08-21T12:05:42;33.30;52.50
41547;DHT22;27271;45.412;10.852;2022-08-21T12:09:27;33.30;57.20
41547;DHT22;27271;45.412;10.852;2022-08-21T12:13:27;33.00;52.70
41547;DHT22;27271;45.412;10.852;2022-08-21T12:17:27;33.30;56.90
41547;DHT22;27271;45.412;10.852;2022-08-21T12:21:51;33.50;51.60
41547;DHT22;27271;45.412;10.852;2022-08-21T12:25:48;33.80;56.90
41547;DHT22;27271;45.412;10.852;2022-08-21T12:29:36;33.60;54.90
41547;DHT22;27271;45.412;10.852;2022-08-21T12:40:46;33.80;50.50
41547;DHT22;27271;45.412;10.852;2022-08-21T12:44:55;34.10;49.90
41547;DHT22;27271;45.412;10.852;2022-08-21T12:56:59;33.40;50.30
41547;DHT22;27271;45.412;10.852;2022-08-21T13:00:33;33.10;55.30
41547;DHT22;27271;45.412;10.852;2022-08-21T13:08:31;33.60;51.70
41547;DHT22;27271;45.412;10.852;2022-08-21T13:12:19;33.40;51.10
41547;DHT22;27271;45.412;10.852;2022-08-21T13:16:35;33.00;52.30
41547;DHT22;27271;45.412;10.852;2022-08-21T13:20:32;33.00;52.10
41547;DHT22;27271;45.412;10.852;2022-08-21T13:24:21;33.10;52.10
41547;DHT22;27271;45.412;10.852;2022-08-21T13:28:13;33.10;56.10
41547;DHT22;27271;45.412;10.852;2022-08-21T13:32:13;33.10;53.40
41547;DHT22;27271;45.412;10.852;2022-08-21T13:36:09;33.40;54.30
41547;DHT22;27271;45.412;10.852;2022-08-21T13:39:33;33.80;51.90
41547;DHT22;27271;45.412;10.852;2022-08-21T13:43:00;34.20;46.90
41547;DHT22;27271;45.412;10.852;2022-08-21T13:46:32;34.30;47.80
41547;DHT22;27271;45.412;10.852;2022-08-21T13:50:06;34.50;47.70
41547;DHT22;27271;45.412;10.852;2022-08-21T13:53:49;34.00;48.40
41547;DHT22;27271;45.412;10.852;2022-08-21T13:57:17;33.50;52.70
41547;DHT22;27271;45.412;10.852;2022-08-21T14:00:49;33.30;51.90
41547;DHT22;27271;45.412;10.852;2022-08-21T14:04:22;33.30;51.50
41547;DHT22;27271;45.412;10.852;2022-08-21T14:07:48;33.50;50.50
41547;DHT22;27271;45.412;10.852;2022-08-21T14:11:33;33.40;50.20
41547;DHT22;27271;45.412;10.852;2022-08-21T14:15:07;33.30;53.10
41547;DHT22;27271;45.412;10.852;2022-08-21T14:18:42;33.30;50.30
41547;DHT22;27271;45.412;10.852;2022-08-21T14:26:02;32.90;50.80
41547;DHT22;27271;45.412;10.852;2022-08-21T14:29:27;32.80;51.70
41547;DHT22;27271;45.412;10.852;2022-08-21T14:32:58;32.60;50.50
41547;DHT22;27271;45.412;10.852;2022-08-21T14:36:21;32.40;53.10
41547;DHT22;27271;45.412;10.852;2022-08-21T14:39:59;32.30;52.10
41547;DHT22;27271;45.412;10.852;2022-08-21T14:43:51;32.40;50.20
41547;DHT22;27271;45.412;10.852;2022-08-21T14:47:35;32.50;53.70
41547;DHT22;27271;45.412;10.852;2022-08-21T14:51:24;32.70;50.70
41547;DHT22;27271;45.412;10.852;2022-08-21T14:55:22;33.20;51.20
41547;DHT22;27271;45.412;10.852;2022-08-21T14:59:12;33.10;51.30
41547;DHT22;27271;45.412;10.852;2022-08-21T15:02:51;33.10;54.60
41547;DHT22;27271;45.412;10.852;2022-08-21T15:06:39;32.60;49.20
41547;DHT22;27271;45.412;10.852;2022-08-21T15:10:48;32.70;53.90
41547;DHT22;27271;45.412;10.852;2022-08-21T15:14:35;32.60;52.00
41547;DHT22;27271;45.412;10.852;2022-08-21T15:18:34;32.40;52.40
41547;DHT22;27271;45.412;10.852;2022-08-21T15:22:44;32.50;52.10
41547;DHT22;27271;45.412;10.852;2022-08-21T15:31:13;32.70;52.70
41547;DHT22;27271;45.412;10.852;2022-08-21T15:35:11;32.30;50.70
41547;DHT22;27271;45.412;10.852;2022-08-21T15:38:57;32.00;51.70
41547;DHT22;27271;45.412;10.852;2022-08-21T15:42:49;32.20;52.10
41547;DHT22;27271;45.412;10.852;2022-08-21T15:46:29;32.50;50.10
41547;DHT22;27271;45.412;10.852;2022-08-21T15:49:55;32.30;50.70
41547;DHT22;27271;45.412;10.852;2022-08-21T15:53:24;32.20;51.50
41547;DHT22;27271;45.412;10.852;2022-08-21T15:57:01;32.30;53.00
41547;DHT22;27271;45.412;10.852;2022-08-21T16:00:54;32.30;49.70
41547;DHT22;27271;45.412;10.852;2022-08-21T16:04:53;31.90;49.40
41547;DHT22;27271;45.412;10.852;2022-08-21T16:08:48;32.00;50.90
41547;DHT22;27271;45.412;10.852;2022-08-21T16:12:34;31.80;49.80
41547;DHT22;27271;45.412;10.852;2022-08-21T16:16:16;31.90;52.40
41547;DHT22;27271;45.412;10.852;2022-08-21T16:20:08;32.10;49.70
41547;DHT22;27271;45.412;10.852;2022-08-21T16:23:55;32.10;51.50
41547;DHT22;27271;45.412;10.852;2022-08-21T16:27:32;31.80;50.90
41547;DHT22;27271;45.412;10.852;2022-08-21T16:31:33;31.80;49.80
41547;DHT22;27271;45.412;10.852;2022-08-21T16:35:20;31.70;50.70
41547;DHT22;27271;45.412;10.852;2022-08-21T16:39:17;31.60;50.70
41547;DHT22;27271;45.412;10.852;2022-08-21T16:43:21;31.30;50.60
41547;DHT22;27271;45.412;10.852;2022-08-21T16:47:12;30.90;50.30
41547;DHT22;27271;45.412;10.852;2022-08-21T16:50:49;31.00;52.30
41547;DHT22;27271;45.412;10.852;2022-08-21T16:54:36;31.20;51.70
41547;DHT22;27271;45.412;10.852;2022-08-21T16:58:37;31.40;50.20
41547;DHT22;27271;45.412;10.852;2022-08-21T17:02:56;31.60;51.60
41547;DHT22;27271;45.412;10.852;2022-08-21T17:06:29;31.60;50.90
41547;DHT22;27271;45.412;10.852;2022-08-21T17:10:00;31.30;50.80
41547;DHT22;27271;45.412;10.852;2022-08-21T17:14:21;30.80;51.00
41547;DHT22;27271;45.412;10.852;2022-08-21T17:17:55;30.50;52.60
41547;DHT22;27271;45.412;10.852;2022-08-21T17:21:45;30.30;54.40
41547;DHT22;27271;45.412;10.852;2022-08-21T17:25:51;29.90;54.60
41547;DHT22;27271;45.412;10.852;2022-08-21T17:30:00;29.50;55.30
41547;DHT22;27271;45.412;10.852;2022-08-21T17:33:26;29.30;57.00
41547;DHT22;27271;45.412;10.852;2022-08-21T17:37:07;29.30;57.20
41547;DHT22;27271;45.412;10.852;2022-08-21T17:40:47;29.10;59.60
41547;DHT22;27271;45.412;10.852;2022-08-21T17:44:37;28.90;59.50
41547;DHT22;27271;45.412;10.852;2022-08-21T17:48:32;28.80;60.10
41547;DHT22;27271;45.412;10.852;2022-08-21T17:52:10;28.50;61.40
41547;DHT22;27271;45.412;10.852;2022-08-21T17:56:15;28.40;63.90
41547;DHT22;27271;45.412;10.852;2022-08-21T17:59:55;28.20;63.20
41547;DHT22;27271;45.412;10.852;2022-08-21T18:03:47;28.10;64.90
41547;DHT22;27271;45.412;10.852;2022-08-21T18:07:16;27.90;64.60
41547;DHT22;27271;45.412;10.852;2022-08-21T18:11:04;27.80;64.40
41547;DHT22;27271;45.412;10.852;2022-08-21T18:23:17;27.00;67.40
41547;DHT22;27271;45.412;10.852;2022-08-21T18:27:23;26.80;68.80
41547;DHT22;27271;45.412;10.852;2022-08-21T18:30:55;26.50;69.40
41547;DHT22;27271;45.412;10.852;2022-08-21T18:37:47;26.00;72.50
41547;DHT22;27271;45.412;10.852;2022-08-21T18:41:21;25.80;72.30
41547;DHT22;27271;45.412;10.852;2022-08-21T18:45:15;25.80;73.20
41547;DHT22;27271;45.412;10.852;2022-08-21T18:48:59;25.60;75.00
41547;DHT22;27271;45.412;10.852;2022-08-21T18:52:52;25.50;73.50
41547;DHT22;27271;45.412;10.852;2022-08-21T18:56:27;25.40;74.40
41547;DHT22;27271;45.412;10.852;2022-08-21T19:00:08;25.50;74.00
41547;DHT22;27271;45.412;10.852;2022-08-21T19:03:43;25.40;74.60
41547;DHT22;27271;45.412;10.852;2022-08-21T19:07:22;25.30;74.00
41547;DHT22;27271;45.412;10.852;2022-08-21T19:10:58;25.10;75.60
41547;DHT22;27271;45.412;10.852;2022-08-21T19:14:37;25.20;76.40
41547;DHT22;27271;45.412;10.852;2022-08-21T19:18:15;25.10;74.90
41547;DHT22;27271;45.412;10.852;2022-08-21T19:22:21;25.10;75.90
41547;DHT22;27271;45.412;10.852;2022-08-21T19:26:04;25.20;74.80
41547;DHT22;27271;45.412;10.852;2022-08-21T19:29:30;25.30;73.70
41547;DHT22;27271;45.412;10.852;2022-08-21T19:33:29;25.40;73.80
41547;DHT22;27271;45.412;10.852;2022-08-21T19:37:03;25.40;72.00
41547;DHT22;27271;45.412;10.852;2022-08-21T19:40:35;25.50;74.50
41547;DHT22;27271;45.412;10.852;2022-08-21T19:44:15;25.60;75.10
41547;DHT22;27271;45.412;10.852;2022-08-21T19:48:08;25.60;74.00
41547;DHT22;27271;45.412;10.852;2022-08-21T19:51:49;25.50;73.80
41547;DHT22;27271;45.412;10.852;2022-08-21T19:59:55;25.50;73.60
41547;DHT22;27271;45.412;10.852;2022-08-21T20:03:31;25.40;73.50
41547;DHT22;27271;45.412;10.852;2022-08-21T20:07:05;25.30;75.10
41547;DHT22;27271;45.412;10.852;2022-08-21T20:10:31;25.20;75.10
41547;DHT22;27271;45.412;10.852;2022-08-21T20:14:15;25.10;75.30
41547;DHT22;27271;45.412;10.852;2022-08-21T20:17:46;24.90;76.30
41547;DHT22;27271;45.412;10.852;2022-08-21T20:21:35;24.60;78.40
41547;DHT22;27271;45.412;10.852;2022-08-21T20:25:47;24.50;78.60
41547;DHT22;27271;45.412;10.852;2022-08-21T20:29:25;24.40;81.40
41547;DHT22;27271;45.412;10.852;2022-08-21T20:33:49;24.40;82.50
41547;DHT22;27271;45.412;10.852;2022-08-21T20:37:23;24.40;81.70
41547;DHT22;27271;45.412;10.852;2022-08-21T20:41:27;24.40;82.60
41547;DHT22;27271;45.412;10.852;2022-08-21T20:45:37;24.30;83.10
41547;DHT22;27271;45.412;10.852;2022-08-21T20:49:04;24.20;84.60
41547;DHT22;27271;45.412;10.852;2022-08-21T20:52:35;24.20;84.30
41547;DHT22;27271;45.412;10.852;2022-08-21T20:56:58;24.10;81.40
41547;DHT22;27271;45.412;10.852;2022-08-21T21:04:42;24.20;80.40
41547;DHT22;27271;45.412;10.852;2022-08-21T21:08:32;24.30;80.20
41547;DHT22;27271;45.412;10.852;2022-08-21T21:12:07;24.30;78.90
41547;DHT22;27271;45.412;10.852;2022-08-21T21:15:33;24.40;79.00
41547;DHT22;27271;45.412;10.852;2022-08-21T21:23:33;24.20;80.10
41547;DHT22;27271;45.412;10.852;2022-08-21T21:27:10;24.10;81.20
41547;DHT22;27271;45.412;10.852;2022-08-21T21:30:43;23.90;83.10
41547;DHT22;27271;45.412;10.852;2022-08-21T21:34:14;23.90;83.30
41547;DHT22;27271;45.412;10.852;2022-08-21T21:42:15;23.70;84.70
41547;DHT22;27271;45.412;10.852;2022-08-21T21:45:58;23.70;85.10
41547;DHT22;27271;45.412;10.852;2022-08-21T22:00:56;23.60;85.80
41547;DHT22;27271;45.412;10.852;2022-08-21T22:04:38;23.60;86.20
41547;DHT22;27271;45.412;10.852;2022-08-21T22:15:17;23.90;87.50
41547;DHT22;27271;45.412;10.852;2022-08-21T22:18:53;23.90;87.10
41547;DHT22;27271;45.412;10.852;2022-08-21T22:22:19;23.90;87.50
41547;DHT22;27271;45.412;10.852;2022-08-21T22:25:44;23.90;88.10
41547;DHT22;27271;45.412;10.852;2022-08-21T22:29:16;24.00;89.00
41547;DHT22;27271;45.412;10.852;2022-08-21T22:32:42;24.00;89.30
41547;DHT22;27271;45.412;10.852;2022-08-21T22:36:16;23.90;88.70
41547;DHT22;27271;45.412;10.852;2022-08-21T22:39:44;23.90;88.80
41547;DHT22;27271;45.412;10.852;2022-08-21T22:43:27;23.90;88.90
41547;DHT22;27271;45.412;10.852;2022-08-21T22:47:00;23.90;89.80
41547;DHT22;27271;45.412;10.852;2022-08-21T22:50:34;23.80;89.20
41547;DHT22;27271;45.412;10.852;2022-08-21T22:54:26;23.70;87.20
41547;DHT22;27271;45.412;10.852;2022-08-21T23:02:09;23.70;87.60
41547;DHT22;27271;45.412;10.852;2022-08-21T23:05:54;23.60;87.60
41547;DHT22;27271;45.412;10.852;2022-08-21T23:12:50;23.50;86.50
41547;DHT22;27271;45.412;10.852;2022-08-21T23:20:51;23.50;87.30
41547;DHT22;27271;45.412;10.852;2022-08-21T23:36:55;23.60;85.90
41547;DHT22;27271;45.412;10.852;2022-08-21T23:45:20;23.60;88.70
41547;DHT22;27271;45.412;10.852;2022-08-21T23:49:38;23.50;88.50
41547;DHT22;27271;45.412;10.852;2022-08-21T23:53:36;23.50;89.30
41547;DHT22;27271;45.412;10.852;2022-08-21T23:57:36;23.40;89.80
